Main page
METAR-TAF:

METAR-TAF

Airports :

Tirana International Airport Nënë Tereza

Tirana, Albania

latitude: 41-20N, longitude: 019-47E, elevation: 89 m

Current weather observation

The report was made 12 minutes ago, at 10:20 UTC
Wind 8 kt from the North/Northwest, varying between West and North/Northeast
Temperature 30°C
Humidity 46%
Pressure 1011 hPa
Visibility 10 km or more
Few clouds at a height of 4000 ft

METAR: LATI 181020Z 33008KT 280V030 9999 FEW040 30/17 Q1011 NOSIG

Time: 12:32 (10:32 UTC)

Forecast

The report was made 5 hours and 32 minutes ago, at 05:00 UTC
Forecast valid from 18 at 06 UTC to 19 at 06 UTC
Wind 4 kt from variable directions
Visibility 10 km or more
no clouds below 1500 m and no cumulonimbus
Temporary
from 18 at 10 UTC to 18 at 16 UTC
Wind 12 kt from the Northwest
Few clouds at a height of 4000 ft
Scattered clouds at a height of 9000 ft

TAF: LATI 180500Z 1806/1906 VRB04KT CAVOK TEMPO 1810/1816 32012KT FEW040 SCT090

Weather observations and forecasts of more than 4000 airports (METAR and TAF reports).

The available stations are represented by yellow and red dots on the map.

Hover mouse over dot to see the name of the station.

Then click to see weather observations and forecasts.

To change the map : click on the green buttons with a black cross to zoom in, on the green button with a dash to zoom out, or on the green arrows for adjacent maps.


METAR-TAF: